Terminal Aerodrome Forecast
Issued by NWS

Home | Current Version | Previous Version | Text Only | Print | Product List | Glossary On
Versions: 1 2 3 4 5 6 7 8 9 10 11 12 13 14 15 16 17 18 19 20 21 22 23 24 25 26 27 28 29 30 31 32 33 34 35 36 37 38 39 40 41 42 43
000
FTUS41 KBOX 302328
TAFHYA
TAF
KHYA 302328Z 3100/3124 22012G19KT 1SM BR BKN003
     FM310400 23012KT 1SM BR VCSH OVC001
     FM310700 23010KT 1 1/2SM BR VCSH OVC001
     FM311000 23009KT 3SM BR OVC001
     FM311400 24008KT P6SM BKN070
     FM311700 22010KT P6SM SCT250=

USA.gov is the U.S. government's official web portal to all federal, state and local government web resources and services.